createdAt,value
2019-05-06T00:00:27.512Z,0
2019-05-06T00:01:28.907Z,0
2019-05-06T00:02:30.282Z,0
2019-05-06T00:03:31.673Z,0
2019-05-06T00:04:34.071Z,0
2019-05-06T00:05:34.378Z,0
2019-05-06T00:06:35.763Z,0
2019-05-06T00:07:37.145Z,0
2019-05-06T00:08:38.524Z,0
2019-05-06T00:09:39.907Z,0
2019-05-06T00:10:41.291Z,0
2019-05-06T00:11:44.718Z,0
2019-05-06T00:12:44.472Z,0
2019-05-06T00:13:45.375Z,0
2019-05-06T00:14:46.765Z,0
2019-05-06T00:15:48.142Z,0
2019-05-06T00:16:49.528Z,0
2019-05-06T00:17:50.912Z,0
2019-05-06T00:18:54.015Z,0
2019-05-06T00:19:53.963Z,0
2019-05-06T00:20:57.462Z,0
2019-05-06T00:21:56.334Z,0
2019-05-06T00:22:57.726Z,0
2019-05-06T00:23:59.113Z,0
2019-05-06T00:25:00.497Z,0
2019-05-06T00:26:03.906Z,0
2019-05-06T00:27:04.719Z,0
2019-05-06T00:28:06.039Z,0
2019-05-06T00:29:05.921Z,0
2019-05-06T00:30:07.299Z,0
2019-05-06T00:31:12.839Z,0
2019-05-06T00:32:10.043Z,0
2019-05-06T00:33:13.302Z,0
2019-05-06T00:34:13.866Z,0
2019-05-06T00:35:14.186Z,0
2019-05-06T00:36:15.471Z,0
2019-05-06T00:37:16.861Z,0
2019-05-06T00:38:18.250Z,0
2019-05-06T00:39:19.633Z,0
2019-05-06T00:40:21.019Z,0
2019-05-06T00:41:24.553Z,0
2019-05-06T00:42:24.623Z,0
2019-05-06T00:43:25.104Z,0
2019-05-06T00:44:26.494Z,0
2019-05-06T00:45:27.884Z,0
2019-05-06T00:46:29.259Z,0
2019-05-06T00:47:30.652Z,0
2019-05-06T00:48:33.936Z,0
2019-05-06T00:49:34.413Z,0
2019-05-06T00:50:34.874Z,0
2019-05-06T00:51:36.086Z,0
2019-05-06T00:52:37.469Z,0
2019-05-06T00:53:38.854Z,0
2019-05-06T00:54:40.233Z,0
2019-05-06T00:55:41.615Z,0
2019-05-06T00:56:44.631Z,0
2019-05-06T00:57:44.486Z,0
2019-05-06T00:58:45.685Z,0
2019-05-06T00:59:47.069Z,0
2019-05-06T01:00:48.457Z,0
2019-05-06T01:01:49.834Z,0
2019-05-06T01:02:51.225Z,0
2019-05-06T01:03:53.699Z,0
2019-05-06T01:04:54.149Z,0
2019-05-06T01:05:55.305Z,0
2019-05-06T01:06:56.685Z,0
2019-05-06T01:07:58.069Z,0
2019-05-06T01:08:59.457Z,0
2019-05-06T01:10:00.836Z,0
2019-05-06T01:11:03.901Z,0
2019-05-06T01:12:03.715Z,0
2019-05-06T01:13:04.916Z,0
2019-05-06T01:14:06.294Z,0
2019-05-06T01:15:07.672Z,0
2019-05-06T01:16:09.072Z,0
2019-05-06T01:17:10.462Z,0
2019-05-06T01:18:13.659Z,0
2019-05-06T01:19:14.131Z,0
2019-05-06T01:20:14.551Z,0
2019-05-06T01:21:15.932Z,0
2019-05-06T01:22:17.314Z,0
2019-05-06T01:23:18.705Z,0
2019-05-06T01:24:20.089Z,0
2019-05-06T01:25:23.638Z,0
2019-05-06T01:26:24.267Z,0
2019-05-06T01:27:24.168Z,0
2019-05-06T01:28:25.554Z,0
2019-05-06T01:29:26.937Z,0
2019-05-06T01:30:28.333Z,0
2019-05-06T01:31:42.264Z,0
2019-05-06T01:32:31.057Z,0
2019-05-06T01:33:34.852Z,0
2019-05-06T01:34:34.020Z,0
2019-05-06T01:35:35.263Z,0
2019-05-06T01:36:36.481Z,0
2019-05-06T01:37:37.863Z,0
2019-05-06T01:38:39.249Z,0
2019-05-06T01:39:40.632Z,0
2019-05-06T01:40:43.957Z,0
2019-05-06T01:41:44.712Z,0
2019-05-06T01:42:44.745Z,0
2019-05-06T01:43:46.113Z,0
2019-05-06T01:44:47.493Z,0
2019-05-06T01:45:48.875Z,0
2019-05-06T01:46:50.262Z,0
2019-05-06T01:47:51.641Z,0
2019-05-06T01:48:53.636Z,0
2019-05-06T01:49:54.378Z,0
2019-05-06T01:50:55.755Z,0
2019-05-06T01:51:57.143Z,0
2019-05-06T01:52:58.526Z,0
2019-05-06T01:53:59.911Z,0
2019-05-06T01:55:01.291Z,0
2019-05-06T01:56:03.663Z,0
2019-05-06T01:57:04.426Z,0
2019-05-06T01:58:05.364Z,0
2019-05-06T01:59:06.743Z,0
2019-05-06T02:00:08.127Z,0
2019-05-06T02:01:09.510Z,0
2019-05-06T02:02:11.783Z,0
2019-05-06T02:03:14.719Z,0
2019-05-06T02:04:14.511Z,0
2019-05-06T02:05:15.895Z,0
2019-05-06T02:06:17.281Z,0
2019-05-06T02:07:18.661Z,0
2019-05-06T02:08:20.052Z,0
2019-05-06T02:09:21.435Z,0
2019-05-06T02:10:23.858Z,0
2019-05-06T02:11:24.258Z,0
2019-05-06T02:12:25.513Z,0
2019-05-06T02:13:26.898Z,0
2019-05-06T02:14:28.288Z,0
2019-05-06T02:15:29.666Z,0
2019-05-06T02:16:31.046Z,0
2019-05-06T02:17:34.368Z,0
2019-05-06T02:18:33.949Z,0
2019-05-06T02:19:35.137Z,0
2019-05-06T02:20:36.526Z,0
2019-05-06T02:21:37.906Z,0
2019-05-06T02:22:39.291Z,0
2019-05-06T02:23:40.676Z,0
2019-05-06T02:24:43.864Z,0
2019-05-06T02:25:44.688Z,0
2019-05-06T02:26:44.746Z,0
2019-05-06T02:27:46.133Z,0
2019-05-06T02:28:47.525Z,0
2019-05-06T02:29:48.911Z,0
2019-05-06T02:30:50.296Z,0
2019-05-06T02:31:54.611Z,0
2019-05-06T02:32:55.389Z,0
2019-05-06T02:33:55.779Z,0
2019-05-06T02:34:55.736Z,0
2019-05-06T02:35:57.115Z,0
2019-05-06T02:36:58.503Z,0
2019-05-06T02:37:59.886Z,0
2019-05-06T02:39:03.407Z,0
2019-05-06T02:40:04.114Z,0
2019-05-06T02:41:03.981Z,0
2019-05-06T02:42:05.347Z,0
2019-05-06T02:43:06.725Z,0
2019-05-06T02:44:10.198Z,0
2019-05-06T02:45:09.455Z,0
2019-05-06T02:46:12.878Z,0
2019-05-06T02:47:13.736Z,0
2019-05-06T02:48:13.991Z,0
2019-05-06T02:49:14.883Z,0
2019-05-06T02:50:16.265Z,0
2019-05-06T02:51:17.663Z,0
2019-05-06T02:52:19.046Z,0
2019-05-06T02:53:20.429Z,0
2019-05-06T02:54:23.463Z,0
2019-05-06T02:55:23.563Z,0
2019-05-06T02:56:24.500Z,0
2019-05-06T02:57:25.903Z,0
2019-05-06T02:58:27.282Z,0
2019-05-06T02:59:28.655Z,0
2019-05-06T03:00:32.574Z,0
2019-05-06T03:01:33.851Z,0
2019-05-06T03:02:41.878Z,0
2019-05-06T03:03:34.183Z,0
2019-05-06T03:04:35.424Z,0
2019-05-06T03:05:36.804Z,0
2019-05-06T03:06:38.232Z,0
2019-05-06T03:07:39.586Z,0
2019-05-06T03:08:43.211Z,0
2019-05-06T03:09:44.586Z,0
2019-05-06T03:10:44.354Z,0
2019-05-06T03:11:44.965Z,0
2019-05-06T03:12:46.345Z,0
2019-05-06T03:13:47.730Z,0
2019-05-06T03:14:49.129Z,0
2019-05-06T03:15:50.508Z,0
2019-05-06T03:16:53.806Z,0
2019-05-06T03:17:55.333Z,0
2019-05-06T03:18:54.577Z,0
2019-05-06T03:19:55.963Z,0
2019-05-06T03:20:57.343Z,0
2019-05-06T03:21:58.730Z,0
2019-05-06T03:23:03.521Z,0
2019-05-06T03:24:04.023Z,0
2019-05-06T03:25:06.297Z,0
2019-05-06T03:26:06.418Z,5
2019-05-06T03:27:05.535Z,5
2019-05-06T03:28:06.921Z,5
2019-05-06T03:29:08.301Z,5
2019-05-06T03:30:09.686Z,5
2019-05-06T03:31:15.612Z,5
2019-05-06T03:32:21.580Z,5
2019-05-06T03:33:37.028Z,5
2019-05-06T03:34:35.448Z,5
2019-05-06T03:35:32.244Z,10
2019-05-06T03:36:25.528Z,10
2019-05-06T03:37:19.352Z,10
2019-05-06T03:38:22.707Z,10
2019-05-06T03:39:23.250Z,10
2019-05-06T03:40:24.339Z,10
2019-05-06T03:41:26.717Z,10
2019-05-06T03:42:26.119Z,10
2019-05-06T03:43:27.504Z,15
2019-05-06T03:44:28.892Z,15
2019-05-06T03:45:33.288Z,15
2019-05-06T03:46:33.489Z,15
2019-05-06T03:47:34.569Z,15
2019-05-06T03:48:34.313Z,15
2019-05-06T03:49:35.702Z,20
2019-05-06T03:50:37.089Z,20
2019-05-06T03:51:38.484Z,25
2019-05-06T03:52:42.880Z,25
2019-05-06T03:53:43.169Z,25
2019-05-06T03:54:45.020Z,25
2019-05-06T03:55:46.786Z,25
2019-05-06T03:56:45.249Z,25
2019-05-06T03:57:46.637Z,25
2019-05-06T03:58:48.038Z,30
2019-05-06T03:59:49.428Z,30
2019-05-06T04:00:52.883Z,30
2019-05-06T04:01:53.466Z,35
2019-05-06T04:02:53.787Z,35
2019-05-06T04:03:57.248Z,35
2019-05-06T04:04:56.809Z,40
2019-05-06T04:05:57.572Z,40
2019-05-06T04:06:58.954Z,40
2019-05-06T04:08:03.615Z,45
2019-05-06T04:09:03.643Z,45
2019-05-06T04:10:03.564Z,45
2019-05-06T04:11:04.387Z,50
2019-05-06T04:12:05.780Z,50
2019-05-06T04:13:07.170Z,50
2019-05-06T04:14:08.557Z,55
2019-05-06T04:15:09.938Z,55
2019-05-06T04:16:13.554Z,55
2019-05-06T04:17:13.047Z,55
2019-05-06T04:18:14.035Z,55
2019-05-06T04:19:15.420Z,55
2019-05-06T04:20:16.819Z,60
2019-05-06T04:21:18.216Z,60
2019-05-06T04:22:19.596Z,65
2019-05-06T04:23:23.184Z,65
2019-05-06T04:24:22.917Z,65
2019-05-06T04:25:23.697Z,70
2019-05-06T04:26:25.083Z,70
2019-05-06T04:27:26.480Z,70
2019-05-06T04:28:27.863Z,75
2019-05-06T04:29:29.259Z,80
2019-05-06T04:30:33.193Z,75
2019-05-06T04:31:33.585Z,80
2019-05-06T04:32:34.100Z,80
2019-05-06T04:33:34.713Z,85
2019-05-06T04:34:36.147Z,85
2019-05-06T04:35:37.533Z,90
2019-05-06T04:36:38.931Z,90
2019-05-06T04:37:42.731Z,95
2019-05-06T04:38:43.414Z,95
2019-05-06T04:39:43.400Z,100
2019-05-06T04:40:44.417Z,100
2019-05-06T04:41:45.812Z,100
2019-05-06T04:42:47.210Z,100
2019-05-06T04:43:48.610Z,100
2019-05-06T04:44:52.931Z,105
2019-05-06T04:45:53.712Z,110
2019-05-06T04:46:54.475Z,115
2019-05-06T04:47:54.244Z,120
2019-05-06T04:48:55.411Z,125
2019-05-06T04:49:56.798Z,135
2019-05-06T04:50:58.199Z,135
2019-05-06T04:51:59.586Z,140
2019-05-06T04:53:03.998Z,140
2019-05-06T04:54:04.239Z,155
2019-05-06T04:55:03.900Z,150
2019-05-06T04:56:05.044Z,155
2019-05-06T04:57:06.437Z,190
2019-05-06T04:58:07.840Z,245
2019-05-06T04:59:09.223Z,215
2019-05-06T05:00:12.773Z,140
2019-05-06T05:01:15.607Z,120
2019-05-06T05:02:13.405Z,120
2019-05-06T05:03:14.699Z,120
2019-05-06T05:04:28.341Z,115
2019-05-06T05:05:17.434Z,110
2019-05-06T05:06:18.830Z,115
2019-05-06T05:07:22.302Z,115
2019-05-06T05:08:22.349Z,110
2019-05-06T05:09:23.118Z,110
2019-05-06T05:10:24.288Z,110
2019-05-06T05:11:25.687Z,110
2019-05-06T05:12:27.081Z,115
2019-05-06T05:13:28.481Z,115
2019-05-06T05:14:29.868Z,115
2019-05-06T05:15:32.544Z,125
2019-05-06T05:16:33.165Z,160
2019-05-06T05:17:33.973Z,145
2019-05-06T05:18:35.417Z,125
2019-05-06T05:19:36.801Z,130
2019-05-06T05:20:43.942Z,140
2019-05-06T05:21:39.550Z,155
2019-05-06T05:22:42.349Z,175
2019-05-06T05:23:42.837Z,175
2019-05-06T05:24:43.633Z,160
2019-05-06T05:25:45.023Z,165
2019-05-06T05:26:47.135Z,210
2019-05-06T05:27:47.776Z,250
2019-05-06T05:28:49.170Z,260
2019-05-06T05:29:52.048Z,255
2019-05-06T05:30:52.264Z,220
2019-05-06T05:31:53.254Z,190
2019-05-06T05:32:54.650Z,190
2019-05-06T05:33:56.036Z,185
2019-05-06T05:34:57.426Z,195
2019-05-06T05:35:58.830Z,215
2019-05-06T05:37:00.229Z,230
2019-05-06T05:38:02.923Z,215
2019-05-06T05:39:03.379Z,200
2019-05-06T05:40:04.315Z,175
2019-05-06T05:41:05.706Z,185
2019-05-06T05:42:07.103Z,190
2019-05-06T05:43:08.497Z,175
2019-05-06T05:44:11.900Z,180
2019-05-06T05:45:12.878Z,165
2019-05-06T05:46:12.756Z,160
2019-05-06T05:47:14.039Z,170
2019-05-06T05:48:15.435Z,175
2019-05-06T05:49:19.076Z,175
2019-05-06T05:50:18.192Z,195
2019-05-06T05:51:19.680Z,225
2019-05-06T05:52:22.269Z,220
2019-05-06T05:53:22.577Z,190
2019-05-06T05:54:23.891Z,175
2019-05-06T05:55:25.286Z,165
2019-05-06T05:56:26.679Z,160
2019-05-06T05:57:28.074Z,155
2019-05-06T05:58:29.492Z,155
2019-05-06T05:59:32.715Z,160
2019-05-06T06:00:32.425Z,170
2019-05-06T06:01:33.630Z,185
2019-05-06T06:02:35.023Z,210
2019-05-06T06:03:36.420Z,250
2019-05-06T06:04:50.727Z,305
2019-05-06T06:05:39.214Z,350
2019-05-06T06:06:42.231Z,365
2019-05-06T06:07:42.237Z,220
2019-05-06T06:08:43.376Z,200
2019-05-06T06:09:44.763Z,190
2019-05-06T06:10:46.154Z,190
2019-05-06T06:11:47.543Z,185
2019-05-06T06:12:48.935Z,180
2019-05-06T06:13:52.169Z,180
2019-05-06T06:14:53.540Z,185
2019-05-06T06:15:53.033Z,195
2019-05-06T06:16:54.433Z,205
2019-05-06T06:17:55.827Z,210
2019-05-06T06:18:57.221Z,265
2019-05-06T06:19:58.673Z,305
2019-05-06T06:21:13.734Z,300
2019-05-06T06:22:02.754Z,425
2019-05-06T06:23:02.945Z,520
2019-05-06T06:24:04.136Z,770
2019-05-06T06:25:05.540Z,1095
2019-05-06T06:26:06.940Z,1120
2019-05-06T06:27:08.336Z,1125
2019-05-06T06:28:11.846Z,1140
2019-05-06T06:29:12.431Z,1145
2019-05-06T06:30:12.909Z,1145
2019-05-06T06:31:13.860Z,1145
2019-05-06T06:32:15.269Z,1140
2019-05-06T06:33:16.662Z,1145
2019-05-06T06:34:18.062Z,1175
2019-05-06T06:35:19.505Z,1150
2019-05-06T06:36:22.932Z,1125
2019-05-06T06:37:22.615Z,1185
2019-05-06T06:38:23.839Z,1190
2019-05-06T06:39:25.116Z,1220
2019-05-06T06:40:26.521Z,1230
2019-05-06T06:41:27.959Z,1270
2019-05-06T06:42:29.370Z,1290
2019-05-06T06:43:32.297Z,1310
2019-05-06T06:44:33.109Z,1310
2019-05-06T06:45:33.522Z,1325
2019-05-06T06:46:34.925Z,1340
2019-05-06T06:47:36.432Z,450
2019-05-06T06:48:37.853Z,1340
2019-05-06T06:49:39.266Z,1390
2019-05-06T06:50:42.510Z,1275
2019-05-06T06:51:42.473Z,285
2019-05-06T06:52:43.435Z,1465
2019-05-06T06:53:44.840Z,1475
2019-05-06T06:54:46.264Z,1460
2019-05-06T06:55:47.674Z,1440
2019-05-06T06:57:02.472Z,1195
2019-05-06T06:57:51.794Z,1455
2019-05-06T06:58:52.480Z,435
2019-05-06T06:59:53.238Z,355
2019-05-06T07:00:54.617Z,770
2019-05-06T07:01:56.029Z,395
2019-05-06T07:02:57.427Z,440
2019-05-06T07:03:58.836Z,1475
2019-05-06T07:05:02.242Z,1440
2019-05-06T07:06:02.305Z,1450
2019-05-06T07:07:03.211Z,1425
2019-05-06T07:08:04.367Z,1455
2019-05-06T07:09:05.772Z,265
2019-05-06T07:10:07.187Z,275
2019-05-06T07:11:08.551Z,1380
2019-05-06T07:12:13.029Z,1320
2019-05-06T07:13:12.160Z,1545
2019-05-06T07:14:13.746Z,1550
2019-05-06T07:15:14.089Z,1485
2019-05-06T07:16:15.528Z,1545
2019-05-06T07:17:16.935Z,450
2019-05-06T07:18:18.346Z,700
2019-05-06T07:19:19.758Z,1405
2019-05-06T07:20:22.889Z,1445
2019-05-06T07:21:22.603Z,390
2019-05-06T07:22:23.947Z,540
2019-05-06T07:23:25.362Z,1175
2019-05-06T07:24:26.776Z,1400
2019-05-06T07:25:28.234Z,1405
2019-05-06T07:26:31.692Z,1400
2019-05-06T07:27:32.352Z,1425
2019-05-06T07:28:32.627Z,1430
2019-05-06T07:29:33.775Z,1430
2019-05-06T07:30:35.193Z,1435
2019-05-06T07:31:37.115Z,1540
2019-05-06T07:32:38.538Z,1550
2019-05-06T07:33:39.969Z,1510
2019-05-06T07:34:42.058Z,1625
2019-05-06T07:35:43.921Z,1640
2019-05-06T07:36:44.129Z,1625
2019-05-06T07:37:45.539Z,1570
2019-05-06T07:38:46.961Z,1600
2019-05-06T07:39:48.387Z,1245
2019-05-06T07:40:49.801Z,1480
2019-05-06T07:41:53.298Z,1505
2019-05-06T07:42:52.732Z,665
2019-05-06T07:43:54.017Z,1525
2019-05-06T07:44:55.428Z,1565
2019-05-06T07:45:56.840Z,1635
2019-05-06T07:46:58.251Z,1825
2019-05-06T07:47:59.664Z,280
2019-05-06T07:49:03.036Z,1735
2019-05-06T07:50:02.649Z,1940
2019-05-06T07:51:03.918Z,330
2019-05-06T07:52:05.318Z,1350
2019-05-06T07:53:06.736Z,305
2019-05-06T07:54:08.176Z,1810
2019-05-06T07:55:11.892Z,345
2019-05-06T07:56:12.605Z,305
2019-05-06T07:57:12.670Z,1975
2019-05-06T07:58:14.014Z,1370
2019-05-06T07:59:15.178Z,345
2019-05-06T08:00:16.673Z,730
2019-05-06T08:01:18.080Z,395
2019-05-06T08:02:19.494Z,345
2019-05-06T08:03:22.244Z,1030
2019-05-06T08:04:23.306Z,265
2019-05-06T08:05:24.717Z,215
2019-05-06T08:06:26.125Z,275
2019-05-06T08:07:27.537Z,1645
2019-05-06T08:08:28.951Z,1655
2019-05-06T08:09:32.452Z,1900
2019-05-06T08:10:33.126Z,1985
2019-05-06T08:11:33.099Z,1995
2019-05-06T08:12:34.506Z,585
2019-05-06T08:13:35.906Z,2110
2019-05-06T08:14:37.317Z,1055
2019-05-06T08:15:38.731Z,1970
2019-05-06T08:16:42.453Z,310
2019-05-06T08:17:42.414Z,520
2019-05-06T08:18:43.730Z,475
2019-05-06T08:19:45.134Z,610
2019-05-06T08:20:46.554Z,425
2019-05-06T08:21:47.961Z,315
2019-05-06T08:22:49.370Z,315
2019-05-06T08:23:52.271Z,370
2019-05-06T08:24:53.226Z,370
2019-05-06T08:26:08.361Z,325
2019-05-06T08:26:54.883Z,400
2019-05-06T08:27:56.298Z,485
2019-05-06T08:28:57.709Z,440
2019-05-06T08:29:59.113Z,410
2019-05-06T08:31:02.238Z,685
2019-05-06T08:32:02.927Z,990
2019-05-06T08:33:03.257Z,1705
2019-05-06T08:34:04.661Z,465
2019-05-06T08:35:06.069Z,340
2019-05-06T08:36:11.497Z,370
2019-05-06T08:37:08.859Z,485
2019-05-06T08:38:11.996Z,790
2019-05-06T08:39:13.086Z,1185
2019-05-06T08:40:12.989Z,1670
2019-05-06T08:41:14.425Z,1615
2019-05-06T08:42:15.851Z,2385
2019-05-06T08:43:17.231Z,1285
2019-05-06T08:44:18.639Z,1610
2019-05-06T08:45:21.935Z,1055
2019-05-06T08:46:23.251Z,1665
2019-05-06T08:47:22.791Z,1305
2019-05-06T08:48:24.204Z,2365
2019-05-06T08:49:25.612Z,2345
2019-05-06T08:50:27.018Z,2350
2019-05-06T08:51:28.432Z,375
2019-05-06T08:52:29.832Z,235
2019-05-06T08:53:32.820Z,2220
2019-05-06T08:54:32.623Z,1510
2019-05-06T08:55:34.044Z,2260
2019-05-06T08:56:35.451Z,2265
2019-05-06T08:57:36.863Z,2260
2019-05-06T08:58:38.267Z,2345
2019-05-06T08:59:42.261Z,2410
2019-05-06T09:00:42.792Z,2460
2019-05-06T09:01:42.650Z,2545
2019-05-06T09:02:46.142Z,2570
2019-05-06T09:03:45.214Z,2605
2019-05-06T09:04:46.634Z,2495
2019-05-06T09:05:48.039Z,2500
2019-05-06T09:06:49.468Z,2570
2019-05-06T09:07:52.340Z,2445
2019-05-06T09:08:52.260Z,375
2019-05-06T09:09:53.673Z,315
2019-05-06T09:10:55.091Z,330
2019-05-06T09:11:56.505Z,310
2019-05-06T09:12:57.912Z,255
2019-05-06T09:13:59.321Z,185
2019-05-06T09:15:03.262Z,140
2019-05-06T09:16:02.481Z,110
2019-05-06T09:17:03.481Z,85
2019-05-06T09:18:04.890Z,70
2019-05-06T09:19:06.304Z,60
2019-05-06T09:20:07.712Z,60
2019-05-06T09:21:09.119Z,60
2019-05-06T09:22:12.781Z,60
2019-05-06T09:23:12.429Z,60
2019-05-06T09:24:13.265Z,65
2019-05-06T09:25:14.672Z,60
2019-05-06T09:26:16.076Z,70
2019-05-06T09:27:17.478Z,75
2019-05-06T09:28:18.882Z,75
2019-05-06T09:29:20.284Z,95
2019-05-06T09:30:22.935Z,105
2019-05-06T09:31:23.142Z,120
2019-05-06T09:32:24.457Z,135
2019-05-06T09:33:25.843Z,155
2019-05-06T09:34:27.259Z,360
2019-05-06T09:35:28.671Z,2135
2019-05-06T09:36:41.351Z,2145
2019-05-06T09:37:32.528Z,2100
2019-05-06T09:38:32.816Z,2070
2019-05-06T09:39:34.222Z,2065
2019-05-06T09:40:35.630Z,2075
2019-05-06T09:41:37.099Z,2045
2019-05-06T09:42:38.432Z,2010
2019-05-06T09:43:39.846Z,2045
2019-05-06T09:44:42.713Z,2120
2019-05-06T09:45:42.731Z,2155
2019-05-06T09:46:43.992Z,2160
2019-05-06T09:47:45.404Z,2180
2019-05-06T09:48:46.818Z,2180
2019-05-06T09:49:48.224Z,385
2019-05-06T09:50:49.630Z,2295
2019-05-06T09:51:52.767Z,2040
2019-05-06T09:52:52.857Z,310
2019-05-06T09:53:53.793Z,705
2019-05-06T09:54:55.201Z,565
2019-05-06T09:55:56.615Z,300
2019-05-06T09:56:58.025Z,270
2019-05-06T09:57:59.464Z,260
2019-05-06T09:59:02.170Z,225
2019-05-06T10:00:04.406Z,205
2019-05-06T10:01:03.844Z,210
2019-05-06T10:02:05.247Z,225
2019-05-06T10:03:06.672Z,255
2019-05-06T10:04:08.086Z,575
2019-05-06T10:05:11.857Z,355
2019-05-06T10:06:12.955Z,260
2019-05-06T10:07:12.225Z,240
2019-05-06T10:08:13.654Z,875
2019-05-06T10:09:16.247Z,290
2019-05-06T10:10:17.778Z,410
2019-05-06T10:11:17.819Z,550
2019-05-06T10:12:19.223Z,335
2019-05-06T10:13:20.637Z,300
2019-05-06T10:14:23.413Z,365
2019-05-06T10:15:23.398Z,280
2019-05-06T10:16:24.807Z,230
2019-05-06T10:17:26.210Z,210
2019-05-06T10:18:27.618Z,205
2019-05-06T10:19:29.022Z,200
2019-05-06T10:20:32.930Z,215
2019-05-06T10:21:32.329Z,205
2019-05-06T10:22:33.162Z,195
2019-05-06T10:23:34.570Z,170
2019-05-06T10:24:35.972Z,180
2019-05-06T10:25:37.377Z,220
2019-05-06T10:26:38.787Z,210
2019-05-06T10:27:42.119Z,235
2019-05-06T10:28:41.588Z,285
2019-05-06T10:29:43.182Z,360
2019-05-06T10:30:44.343Z,360
2019-05-06T10:31:45.750Z,340
2019-05-06T10:32:47.158Z,295
2019-05-06T10:33:48.564Z,250
2019-05-06T10:34:52.401Z,220
2019-05-06T10:35:52.889Z,190
2019-05-06T10:36:53.335Z,150
2019-05-06T10:37:54.075Z,130
2019-05-06T10:38:55.479Z,130
2019-05-06T10:39:56.886Z,125
2019-05-06T10:41:03.815Z,140
2019-05-06T10:41:59.658Z,155
2019-05-06T10:43:02.623Z,185
2019-05-06T10:44:02.966Z,170
2019-05-06T10:45:03.783Z,215
2019-05-06T10:46:05.197Z,300
2019-05-06T10:47:06.596Z,220
2019-05-06T10:48:07.998Z,225
2019-05-06T10:49:09.402Z,230
2019-05-06T10:50:12.443Z,275
2019-05-06T10:51:13.546Z,345
2019-05-06T10:52:13.612Z,335
2019-05-06T10:53:15.040Z,295
2019-05-06T10:54:16.460Z,245
2019-05-06T10:55:17.865Z,200
2019-05-06T10:56:19.263Z,175
2019-05-06T10:57:22.077Z,140
2019-05-06T10:58:22.551Z,130
2019-05-06T10:59:23.401Z,110
2019-05-06T11:00:24.801Z,100
2019-05-06T11:01:26.200Z,115
2019-05-06T11:02:27.606Z,135
2019-05-06T11:03:29.007Z,180
2019-05-06T11:04:30.417Z,1705
2019-05-06T11:05:32.517Z,210
2019-05-06T11:06:33.700Z,400
2019-05-06T11:07:35.327Z,240
2019-05-06T11:08:35.899Z,245
2019-05-06T11:09:37.304Z,235
2019-05-06T11:10:41.406Z,215
2019-05-06T11:11:42.549Z,245
2019-05-06T11:12:42.976Z,255
2019-05-06T11:13:42.819Z,245
2019-05-06T11:14:44.220Z,280
2019-05-06T11:15:45.619Z,250
2019-05-06T11:16:47.020Z,235
2019-05-06T11:17:48.415Z,215
2019-05-06T11:18:49.825Z,185
2019-05-06T11:19:53.151Z,170
2019-05-06T11:20:55.956Z,170
2019-05-06T11:21:53.943Z,185
2019-05-06T11:22:55.345Z,190
2019-05-06T11:23:56.746Z,610
2019-05-06T11:24:58.148Z,2235
2019-05-06T11:25:59.555Z,1900
2019-05-06T11:27:03.163Z,355
2019-05-06T11:28:02.905Z,515
2019-05-06T11:29:05.010Z,180
2019-05-06T11:30:05.063Z,150
2019-05-06T11:31:09.197Z,140
2019-05-06T11:32:07.918Z,225
2019-05-06T11:33:09.326Z,2025
2019-05-06T11:34:12.490Z,2055
2019-05-06T11:35:12.344Z,465
2019-05-06T11:36:15.214Z,1220
2019-05-06T11:37:15.036Z,2145
2019-05-06T11:38:16.198Z,2145
2019-05-06T11:39:17.604Z,2235
2019-05-06T11:40:19.011Z,2255
2019-05-06T11:41:20.422Z,2330
2019-05-06T11:42:31.758Z,2270
2019-05-06T11:43:23.416Z,2245
2019-05-06T11:44:24.817Z,2250
2019-05-06T11:45:26.220Z,2220
2019-05-06T11:46:27.622Z,2235
2019-05-06T11:47:29.046Z,2265
2019-05-06T11:48:32.612Z,2290
2019-05-06T11:49:32.608Z,210
2019-05-06T11:50:33.498Z,175
2019-05-06T11:51:34.550Z,150
2019-05-06T11:52:35.960Z,135
2019-05-06T11:53:37.369Z,135
2019-05-06T11:54:38.769Z,150
2019-05-06T11:55:40.171Z,150
2019-05-06T11:56:49.682Z,2170
2019-05-06T11:57:44.652Z,2055
2019-05-06T11:58:44.319Z,430
2019-05-06T11:59:45.735Z,730
2019-05-06T12:00:47.137Z,290
2019-05-06T12:01:48.551Z,2100
2019-05-06T12:02:49.966Z,2110
2019-05-06T12:03:52.179Z,1995
2019-05-06T12:04:53.016Z,985
2019-05-06T12:05:54.096Z,335
2019-05-06T12:07:09.279Z,155
2019-05-06T12:08:04.669Z,165
2019-05-06T12:08:58.254Z,190
2019-05-06T12:09:59.658Z,170
2019-05-06T12:11:02.773Z,190
2019-05-06T12:12:03.251Z,210
2019-05-06T12:13:03.818Z,205
2019-05-06T12:14:05.241Z,225
2019-05-06T12:15:07.250Z,285
2019-05-06T12:16:08.003Z,250
2019-05-06T12:17:09.434Z,250
2019-05-06T12:18:12.399Z,280
2019-05-06T12:19:13.086Z,275
2019-05-06T12:20:13.581Z,375
2019-05-06T12:21:19.108Z,340
2019-05-06T12:22:16.347Z,265
2019-05-06T12:23:17.747Z,245
2019-05-06T12:24:19.149Z,220
2019-05-06T12:25:23.350Z,215
2019-05-06T12:26:21.927Z,200
2019-05-06T12:27:23.336Z,190
2019-05-06T12:28:24.751Z,170
2019-05-06T12:29:26.153Z,160
2019-05-06T12:30:27.559Z,145
2019-05-06T12:31:28.970Z,145
2019-05-06T12:32:32.895Z,140
2019-05-06T12:33:32.969Z,125
2019-05-06T12:34:33.135Z,110
2019-05-06T12:35:34.542Z,90
2019-05-06T12:36:35.959Z,75
2019-05-06T12:37:37.352Z,65
2019-05-06T12:38:38.762Z,55
2019-05-06T12:39:40.176Z,55
2019-05-06T12:40:42.943Z,55
2019-05-06T12:41:43.129Z,60
2019-05-06T12:42:44.314Z,70
2019-05-06T12:43:45.709Z,75
2019-05-06T12:44:47.107Z,85
2019-05-06T12:45:48.555Z,90
2019-05-06T12:46:52.701Z,90
2019-05-06T12:47:53.207Z,80
2019-05-06T12:48:52.756Z,70
2019-05-06T12:49:54.172Z,65
2019-05-06T12:50:55.690Z,65
2019-05-06T12:51:57.115Z,70
2019-05-06T12:52:58.509Z,80
2019-05-06T12:53:59.909Z,90
2019-05-06T12:55:16.923Z,95
2019-05-06T12:56:03.167Z,100
2019-05-06T12:57:04.077Z,105
2019-05-06T12:58:05.476Z,115
2019-05-06T12:59:06.936Z,140
2019-05-06T13:00:08.352Z,165
2019-05-06T13:01:09.761Z,190
2019-05-06T13:02:12.967Z,175
2019-05-06T13:03:12.647Z,165
2019-05-06T13:04:14.558Z,160
2019-05-06T13:05:15.306Z,160
2019-05-06T13:06:16.918Z,140
2019-05-06T13:07:18.142Z,135
2019-05-06T13:08:21.085Z,135
2019-05-06T13:09:22.531Z,155
2019-05-06T13:10:23.154Z,175
2019-05-06T13:11:23.693Z,195
2019-05-06T13:12:25.094Z,220
2019-05-06T13:13:26.497Z,220
2019-05-06T13:14:27.889Z,220
2019-05-06T13:15:29.322Z,225
2019-05-06T13:16:33.214Z,220
2019-05-06T13:17:32.931Z,220
2019-05-06T13:18:33.553Z,220
2019-05-06T13:19:34.958Z,215
2019-05-06T13:20:36.365Z,220
2019-05-06T13:21:37.847Z,215
2019-05-06T13:22:39.246Z,200
2019-05-06T13:23:40.677Z,190
2019-05-06T13:24:42.069Z,185
2019-05-06T13:25:45.524Z,170
2019-05-06T13:26:44.850Z,150
2019-05-06T13:27:46.281Z,125
2019-05-06T13:28:47.676Z,110
2019-05-06T13:29:49.074Z,90
2019-05-06T13:30:50.470Z,70
2019-05-06T13:31:53.083Z,45
2019-05-06T13:32:53.269Z,35
2019-05-06T13:33:54.917Z,30
2019-05-06T13:34:58.913Z,30
2019-05-06T13:35:57.382Z,25
2019-05-06T13:36:58.840Z,30
2019-05-06T13:38:00.147Z,35
2019-05-06T13:39:13.979Z,35
2019-05-06T13:40:03.587Z,35
2019-05-06T13:41:04.927Z,40
2019-05-06T13:42:06.329Z,45
2019-05-06T13:43:07.733Z,55
2019-05-06T13:44:09.169Z,70
2019-05-06T13:45:12.162Z,80
2019-05-06T13:46:12.370Z,95
2019-05-06T13:47:13.339Z,105
2019-05-06T13:48:14.755Z,120
2019-05-06T13:49:16.135Z,120
2019-05-06T13:50:17.536Z,125
2019-05-06T13:51:18.933Z,130
2019-05-06T13:52:22.784Z,125
2019-05-06T13:53:24.471Z,135
2019-05-06T13:54:23.111Z,150
2019-05-06T13:55:24.548Z,160
2019-05-06T13:56:25.921Z,170
2019-05-06T13:57:29.027Z,175
2019-05-06T13:58:28.728Z,175
2019-05-06T13:59:30.586Z,165
2019-05-06T14:00:32.869Z,160
2019-05-06T14:01:32.854Z,155
2019-05-06T14:02:34.290Z,155
2019-05-06T14:03:35.685Z,150
2019-05-06T14:04:37.133Z,145
2019-05-06T14:05:38.524Z,145
2019-05-06T14:06:39.936Z,145
2019-05-06T14:07:43.263Z,145
2019-05-06T14:08:43.577Z,160
2019-05-06T14:09:44.081Z,170
2019-05-06T14:10:56.503Z,175
2019-05-06T14:11:46.854Z,180
2019-05-06T14:12:48.266Z,170
2019-05-06T14:13:49.693Z,155
2019-05-06T14:14:52.671Z,150
2019-05-06T14:15:52.838Z,135
2019-05-06T14:16:53.830Z,120
2019-05-06T14:17:55.226Z,110
2019-05-06T14:18:56.640Z,95